sensor_id;sensor_type;location;lat;lon;timestamp;temperature;humidity
32977;DHT22;72327;50.842;4.450;2023-09-07T00:00:15;18.10;99.90
32977;DHT22;72327;50.842;4.450;2023-09-07T00:02:40;18.10;99.90
32977;DHT22;72327;50.842;4.450;2023-09-07T00:05:07;18.10;99.90
32977;DHT22;72327;50.842;4.450;2023-09-07T00:07:33;18.00;99.90
32977;DHT22;72327;50.842;4.450;2023-09-07T00:10:00;18.10;99.90
32977;DHT22;72327;50.842;4.450;2023-09-07T00:12:27;18.00;99.90
32977;DHT22;72327;50.842;4.450;2023-09-07T00:14:54;18.00;99.90
32977;DHT22;72327;50.842;4.450;2023-09-07T00:17:21;18.00;99.90
32977;DHT22;72327;50.842;4.450;2023-09-07T00:19:46;17.90;99.90
32977;DHT22;72327;50.842;4.450;2023-09-07T00:22:14;17.90;99.90
32977;DHT22;72327;50.842;4.450;2023-09-07T00:24:40;17.90;99.90
32977;DHT22;72327;50.842;4.450;2023-09-07T00:27:06;17.80;99.90
32977;DHT22;72327;50.842;4.450;2023-09-07T00:29:37;17.80;99.90
32977;DHT22;72327;50.842;4.450;2023-09-07T00:32:02;17.80;99.90
32977;DHT22;72327;50.842;4.450;2023-09-07T00:34:28;17.80;99.90
32977;DHT22;72327;50.842;4.450;2023-09-07T00:36:54;17.70;99.90
32977;DHT22;72327;50.842;4.450;2023-09-07T00:39:19;17.70;99.90
32977;DHT22;72327;50.842;4.450;2023-09-07T00:41:45;17.70;99.90
32977;DHT22;72327;50.842;4.450;2023-09-07T00:44:11;17.60;99.90
32977;DHT22;72327;50.842;4.450;2023-09-07T00:46:36;17.60;99.90
32977;DHT22;72327;50.842;4.450;2023-09-07T00:49:02;17.60;99.90
32977;DHT22;72327;50.842;4.450;2023-09-07T00:51:30;17.50;99.90
32977;DHT22;72327;50.842;4.450;2023-09-07T00:53:56;17.50;99.90
32977;DHT22;72327;50.842;4.450;2023-09-07T00:56:22;17.50;99.90
32977;DHT22;72327;50.842;4.450;2023-09-07T00:58:50;17.50;99.90
32977;DHT22;72327;50.842;4.450;2023-09-07T01:01:18;17.50;99.90
32977;DHT22;72327;50.842;4.450;2023-09-07T01:03:44;17.40;99.90
32977;DHT22;72327;50.842;4.450;2023-09-07T01:08:41;17.40;99.90
32977;DHT22;72327;50.842;4.450;2023-09-07T01:11:16;17.40;99.90
32977;DHT22;72327;50.842;4.450;2023-09-07T01:13:42;17.30;99.90
32977;DHT22;72327;50.842;4.450;2023-09-07T01:16:12;17.30;99.90
32977;DHT22;72327;50.842;4.450;2023-09-07T01:18:41;17.30;99.90
32977;DHT22;72327;50.842;4.450;2023-09-07T01:21:08;17.20;99.90
32977;DHT22;72327;50.842;4.450;2023-09-07T01:23:36;17.20;99.90
32977;DHT22;72327;50.842;4.450;2023-09-07T01:26:05;17.30;99.90
32977;DHT22;72327;50.842;4.450;2023-09-07T01:28:30;17.20;99.90
32977;DHT22;72327;50.842;4.450;2023-09-07T01:30:57;17.20;99.90
32977;DHT22;72327;50.842;4.450;2023-09-07T01:33:23;17.00;99.90
32977;DHT22;72327;50.842;4.450;2023-09-07T01:35:59;17.10;99.90
32977;DHT22;72327;50.842;4.450;2023-09-07T01:38:28;17.10;99.90
32977;DHT22;72327;50.842;4.450;2023-09-07T01:40:55;17.00;99.90
32977;DHT22;72327;50.842;4.450;2023-09-07T01:43:21;17.00;99.90
32977;DHT22;72327;50.842;4.450;2023-09-07T01:45:47;17.00;99.90
32977;DHT22;72327;50.842;4.450;2023-09-07T01:48:14;17.00;99.90
32977;DHT22;72327;50.842;4.450;2023-09-07T01:50:41;17.00;99.90
32977;DHT22;72327;50.842;4.450;2023-09-07T01:53:12;17.00;99.90
32977;DHT22;72327;50.842;4.450;2023-09-07T01:55:37;16.90;99.90
32977;DHT22;72327;50.842;4.450;2023-09-07T01:58:03;16.90;99.90
32977;DHT22;72327;50.842;4.450;2023-09-07T02:00:30;16.90;99.90
32977;DHT22;72327;50.842;4.450;2023-09-07T02:02:56;16.90;99.90
32977;DHT22;72327;50.842;4.450;2023-09-07T02:05:21;16.90;99.90
32977;DHT22;72327;50.842;4.450;2023-09-07T02:07:47;16.80;99.90
32977;DHT22;72327;50.842;4.450;2023-09-07T02:10:15;16.80;99.90
32977;DHT22;72327;50.842;4.450;2023-09-07T02:12:40;16.80;99.90
32977;DHT22;72327;50.842;4.450;2023-09-07T02:15:06;16.70;99.90
32977;DHT22;72327;50.842;4.450;2023-09-07T02:17:32;16.70;99.90
32977;DHT22;72327;50.842;4.450;2023-09-07T02:20:02;16.70;99.90
32977;DHT22;72327;50.842;4.450;2023-09-07T02:22:36;16.60;99.90
32977;DHT22;72327;50.842;4.450;2023-09-07T02:25:03;16.70;99.90
32977;DHT22;72327;50.842;4.450;2023-09-07T02:27:35;16.70;99.90
32977;DHT22;72327;50.842;4.450;2023-09-07T02:30:06;16.70;99.90
32977;DHT22;72327;50.842;4.450;2023-09-07T02:32:35;16.60;99.90
32977;DHT22;72327;50.842;4.450;2023-09-07T02:35:01;16.60;99.90
32977;DHT22;72327;50.842;4.450;2023-09-07T02:37:28;16.60;99.90
32977;DHT22;72327;50.842;4.450;2023-09-07T02:39:54;16.60;99.90
32977;DHT22;72327;50.842;4.450;2023-09-07T02:42:19;16.50;99.90
32977;DHT22;72327;50.842;4.450;2023-09-07T02:44:45;16.50;99.90
32977;DHT22;72327;50.842;4.450;2023-09-07T02:47:17;16.50;99.90
32977;DHT22;72327;50.842;4.450;2023-09-07T02:49:44;16.50;99.90
32977;DHT22;72327;50.842;4.450;2023-09-07T02:52:16;16.40;99.90
32977;DHT22;72327;50.842;4.450;2023-09-07T02:54:42;16.40;99.90
32977;DHT22;72327;50.842;4.450;2023-09-07T02:57:08;16.40;99.90
32977;DHT22;72327;50.842;4.450;2023-09-07T02:59:34;16.40;99.90
32977;DHT22;72327;50.842;4.450;2023-09-07T03:01:59;16.30;99.90
32977;DHT22;72327;50.842;4.450;2023-09-07T03:04:27;16.40;99.90
32977;DHT22;72327;50.842;4.450;2023-09-07T03:06:53;16.30;99.90
32977;DHT22;72327;50.842;4.450;2023-09-07T03:09:20;16.30;99.90
32977;DHT22;72327;50.842;4.450;2023-09-07T03:11:45;16.30;99.90
32977;DHT22;72327;50.842;4.450;2023-09-07T03:14:18;16.30;99.90
32977;DHT22;72327;50.842;4.450;2023-09-07T03:16:44;16.30;99.90
32977;DHT22;72327;50.842;4.450;2023-09-07T03:19:10;16.20;99.90
32977;DHT22;72327;50.842;4.450;2023-09-07T03:21:35;16.20;99.90
32977;DHT22;72327;50.842;4.450;2023-09-07T03:24:07;16.20;99.90
32977;DHT22;72327;50.842;4.450;2023-09-07T03:26:33;16.10;99.90
32977;DHT22;72327;50.842;4.450;2023-09-07T03:29:02;16.20;99.90
32977;DHT22;72327;50.842;4.450;2023-09-07T03:31:30;16.10;99.90
32977;DHT22;72327;50.842;4.450;2023-09-07T03:33:57;16.10;99.90
32977;DHT22;72327;50.842;4.450;2023-09-07T03:36:23;16.10;99.90
32977;DHT22;72327;50.842;4.450;2023-09-07T03:38:49;16.00;99.90
32977;DHT22;72327;50.842;4.450;2023-09-07T03:41:20;16.00;99.90
32977;DHT22;72327;50.842;4.450;2023-09-07T03:43:47;16.00;99.90
32977;DHT22;72327;50.842;4.450;2023-09-07T03:46:13;16.00;99.90
32977;DHT22;72327;50.842;4.450;2023-09-07T03:48:41;16.00;99.90
32977;DHT22;72327;50.842;4.450;2023-09-07T03:51:08;16.00;99.90
32977;DHT22;72327;50.842;4.450;2023-09-07T03:53:35;16.00;99.90
32977;DHT22;72327;50.842;4.450;2023-09-07T03:56:03;16.00;99.90
32977;DHT22;72327;50.842;4.450;2023-09-07T03:59:09;16.00;99.90
32977;DHT22;72327;50.842;4.450;2023-09-07T04:01:48;16.00;99.90
32977;DHT22;72327;50.842;4.450;2023-09-07T04:04:14;15.90;99.90
32977;DHT22;72327;50.842;4.450;2023-09-07T04:06:40;15.90;99.90
32977;DHT22;72327;50.842;4.450;2023-09-07T04:09:10;15.90;99.90
32977;DHT22;72327;50.842;4.450;2023-09-07T04:11:38;15.90;99.90
32977;DHT22;72327;50.842;4.450;2023-09-07T04:14:03;15.80;99.90
32977;DHT22;72327;50.842;4.450;2023-09-07T04:16:30;15.90;99.90
32977;DHT22;72327;50.842;4.450;2023-09-07T04:18:56;15.80;99.90
32977;DHT22;72327;50.842;4.450;2023-09-07T04:21:22;15.80;99.90
32977;DHT22;72327;50.842;4.450;2023-09-07T04:23:48;15.80;99.90
32977;DHT22;72327;50.842;4.450;2023-09-07T04:26:13;15.80;99.90
32977;DHT22;72327;50.842;4.450;2023-09-07T04:28:39;15.70;99.90
32977;DHT22;72327;50.842;4.450;2023-09-07T04:31:06;15.70;99.90
32977;DHT22;72327;50.842;4.450;2023-09-07T04:33:38;15.70;99.90
32977;DHT22;72327;50.842;4.450;2023-09-07T04:36:11;15.70;99.90
32977;DHT22;72327;50.842;4.450;2023-09-07T04:38:38;15.70;99.90
32977;DHT22;72327;50.842;4.450;2023-09-07T04:41:32;15.70;99.90
32977;DHT22;72327;50.842;4.450;2023-09-07T04:43:59;15.70;99.90
32977;DHT22;72327;50.842;4.450;2023-09-07T04:46:27;15.70;99.90
32977;DHT22;72327;50.842;4.450;2023-09-07T04:48:54;15.60;99.90
32977;DHT22;72327;50.842;4.450;2023-09-07T04:51:19;15.70;99.90
32977;DHT22;72327;50.842;4.450;2023-09-07T04:53:47;15.60;99.90
32977;DHT22;72327;50.842;4.450;2023-09-07T04:56:13;15.60;99.90
32977;DHT22;72327;50.842;4.450;2023-09-07T04:58:39;15.60;99.90
32977;DHT22;72327;50.842;4.450;2023-09-07T05:01:06;15.70;99.90
32977;DHT22;72327;50.842;4.450;2023-09-07T05:03:32;15.60;99.90
32977;DHT22;72327;50.842;4.450;2023-09-07T05:05:59;15.60;99.90
32977;DHT22;72327;50.842;4.450;2023-09-07T05:08:25;15.60;99.90
32977;DHT22;72327;50.842;4.450;2023-09-07T05:10:58;15.60;99.90
32977;DHT22;72327;50.842;4.450;2023-09-07T05:13:25;15.60;99.90
32977;DHT22;72327;50.842;4.450;2023-09-07T05:15:51;15.60;99.90
32977;DHT22;72327;50.842;4.450;2023-09-07T05:18:18;15.60;99.90
32977;DHT22;72327;50.842;4.450;2023-09-07T05:20:44;15.60;99.90
32977;DHT22;72327;50.842;4.450;2023-09-07T05:23:12;15.60;99.90
32977;DHT22;72327;50.842;4.450;2023-09-07T05:25:49;15.60;99.90
32977;DHT22;72327;50.842;4.450;2023-09-07T05:28:16;15.70;99.90
32977;DHT22;72327;50.842;4.450;2023-09-07T05:30:42;15.70;99.90
32977;DHT22;72327;50.842;4.450;2023-09-07T05:33:10;15.80;99.90
32977;DHT22;72327;50.842;4.450;2023-09-07T05:35:35;15.80;99.90
32977;DHT22;72327;50.842;4.450;2023-09-07T05:38:02;15.80;99.90
32977;DHT22;72327;50.842;4.450;2023-09-07T05:40:28;15.80;99.90
32977;DHT22;72327;50.842;4.450;2023-09-07T05:42:54;15.80;99.90
32977;DHT22;72327;50.842;4.450;2023-09-07T05:45:20;15.90;99.90
32977;DHT22;72327;50.842;4.450;2023-09-07T05:47:45;16.00;99.90
32977;DHT22;72327;50.842;4.450;2023-09-07T05:50:11;16.00;99.90
32977;DHT22;72327;50.842;4.450;2023-09-07T05:52:37;16.10;99.90
32977;DHT22;72327;50.842;4.450;2023-09-07T05:55:03;16.20;99.90
32977;DHT22;72327;50.842;4.450;2023-09-07T05:57:28;16.30;99.90
32977;DHT22;72327;50.842;4.450;2023-09-07T05:59:54;16.30;99.90
32977;DHT22;72327;50.842;4.450;2023-09-07T06:02:20;16.40;99.90
32977;DHT22;72327;50.842;4.450;2023-09-07T06:04:46;16.40;99.90
32977;DHT22;72327;50.842;4.450;2023-09-07T06:07:11;16.50;99.90
32977;DHT22;72327;50.842;4.450;2023-09-07T06:09:37;16.60;99.90
32977;DHT22;72327;50.842;4.450;2023-09-07T06:12:03;16.80;99.90
32977;DHT22;72327;50.842;4.450;2023-09-07T06:14:29;16.80;99.90
32977;DHT22;72327;50.842;4.450;2023-09-07T06:16:54;16.90;99.90
32977;DHT22;72327;50.842;4.450;2023-09-07T06:19:20;17.00;99.90
32977;DHT22;72327;50.842;4.450;2023-09-07T06:21:46;17.10;99.90
32977;DHT22;72327;50.842;4.450;2023-09-07T06:24:11;17.10;99.90
32977;DHT22;72327;50.842;4.450;2023-09-07T06:26:37;17.20;99.90
32977;DHT22;72327;50.842;4.450;2023-09-07T06:29:03;17.20;99.90
32977;DHT22;72327;50.842;4.450;2023-09-07T06:31:28;17.30;99.90
32977;DHT22;72327;50.842;4.450;2023-09-07T06:33:54;17.40;99.90
32977;DHT22;72327;50.842;4.450;2023-09-07T06:36:20;17.40;99.90
32977;DHT22;72327;50.842;4.450;2023-09-07T06:38:45;17.50;99.90
32977;DHT22;72327;50.842;4.450;2023-09-07T06:41:11;17.70;99.90
32977;DHT22;72327;50.842;4.450;2023-09-07T06:43:37;17.80;99.90
32977;DHT22;72327;50.842;4.450;2023-09-07T06:46:07;18.00;99.90
32977;DHT22;72327;50.842;4.450;2023-09-07T06:48:34;18.10;99.90
32977;DHT22;72327;50.842;4.450;2023-09-07T06:51:03;18.30;99.90
32977;DHT22;72327;50.842;4.450;2023-09-07T06:53:29;18.40;99.90
32977;DHT22;72327;50.842;4.450;2023-09-07T06:56:02;18.50;99.90
32977;DHT22;72327;50.842;4.450;2023-09-07T06:58:28;18.60;99.90
32977;DHT22;72327;50.842;4.450;2023-09-07T07:00:58;18.70;99.90
32977;DHT22;72327;50.842;4.450;2023-09-07T07:03:28;18.80;99.90
32977;DHT22;72327;50.842;4.450;2023-09-07T07:05:54;18.90;99.90
32977;DHT22;72327;50.842;4.450;2023-09-07T07:08:20;18.90;99.90
32977;DHT22;72327;50.842;4.450;2023-09-07T07:10:46;19.00;99.90
32977;DHT22;72327;50.842;4.450;2023-09-07T07:13:12;19.10;99.90
32977;DHT22;72327;50.842;4.450;2023-09-07T07:15:37;19.20;99.90
32977;DHT22;72327;50.842;4.450;2023-09-07T07:18:03;19.40;99.90
32977;DHT22;72327;50.842;4.450;2023-09-07T07:20:34;19.40;99.90
32977;DHT22;72327;50.842;4.450;2023-09-07T07:23:00;19.60;99.90
32977;DHT22;72327;50.842;4.450;2023-09-07T07:25:25;19.70;99.90
32977;DHT22;72327;50.842;4.450;2023-09-07T07:27:51;19.90;99.90
32977;DHT22;72327;50.842;4.450;2023-09-07T07:30:17;19.90;99.90
32977;DHT22;72327;50.842;4.450;2023-09-07T07:32:42;20.00;99.90
32977;DHT22;72327;50.842;4.450;2023-09-07T07:35:08;20.10;99.90
32977;DHT22;72327;50.842;4.450;2023-09-07T07:37:34;20.10;99.90
32977;DHT22;72327;50.842;4.450;2023-09-07T07:39:59;20.30;99.90
32977;DHT22;72327;50.842;4.450;2023-09-07T07:42:25;20.30;99.90
32977;DHT22;72327;50.842;4.450;2023-09-07T07:44:50;20.40;99.90
32977;DHT22;72327;50.842;4.450;2023-09-07T07:47:16;20.40;99.90
32977;DHT22;72327;50.842;4.450;2023-09-07T07:49:42;20.60;99.90
32977;DHT22;72327;50.842;4.450;2023-09-07T07:52:07;20.60;99.90
32977;DHT22;72327;50.842;4.450;2023-09-07T07:54:34;20.60;99.90
32977;DHT22;72327;50.842;4.450;2023-09-07T07:56:59;20.60;99.90
32977;DHT22;72327;50.842;4.450;2023-09-07T07:59:25;20.70;99.90
32977;DHT22;72327;50.842;4.450;2023-09-07T08:01:50;20.80;99.90
32977;DHT22;72327;50.842;4.450;2023-09-07T08:04:16;20.90;99.90
32977;DHT22;72327;50.842;4.450;2023-09-07T08:06:42;21.00;99.90
32977;DHT22;72327;50.842;4.450;2023-09-07T08:09:07;21.00;99.90
32977;DHT22;72327;50.842;4.450;2023-09-07T08:11:33;21.10;99.90
32977;DHT22;72327;50.842;4.450;2023-09-07T08:13:59;21.20;99.90
32977;DHT22;72327;50.842;4.450;2023-09-07T08:16:25;21.40;99.90
32977;DHT22;72327;50.842;4.450;2023-09-07T08:18:51;21.60;99.90
32977;DHT22;72327;50.842;4.450;2023-09-07T08:21:16;21.60;99.90
32977;DHT22;72327;50.842;4.450;2023-09-07T08:23:43;21.60;99.90
32977;DHT22;72327;50.842;4.450;2023-09-07T08:26:09;21.60;99.90
32977;DHT22;72327;50.842;4.450;2023-09-07T08:28:35;21.60;99.90
32977;DHT22;72327;50.842;4.450;2023-09-07T08:31:00;21.70;99.90
32977;DHT22;72327;50.842;4.450;2023-09-07T08:33:26;21.80;99.90
32977;DHT22;72327;50.842;4.450;2023-09-07T08:35:57;21.80;99.90
32977;DHT22;72327;50.842;4.450;2023-09-07T08:38:25;21.90;99.90
32977;DHT22;72327;50.842;4.450;2023-09-07T08:40:54;22.10;99.90
32977;DHT22;72327;50.842;4.450;2023-09-07T08:43:21;22.10;99.90
32977;DHT22;72327;50.842;4.450;2023-09-07T08:45:51;22.20;99.90
32977;DHT22;72327;50.842;4.450;2023-09-07T08:48:24;22.20;99.90
32977;DHT22;72327;50.842;4.450;2023-09-07T08:50:51;22.40;99.90
32977;DHT22;72327;50.842;4.450;2023-09-07T08:53:18;22.40;99.90
32977;DHT22;72327;50.842;4.450;2023-09-07T08:55:45;22.50;99.90
32977;DHT22;72327;50.842;4.450;2023-09-07T08:58:11;22.60;99.90
32977;DHT22;72327;50.842;4.450;2023-09-07T09:00:37;22.70;99.90
32977;DHT22;72327;50.842;4.450;2023-09-07T09:03:03;22.70;99.90
32977;DHT22;72327;50.842;4.450;2023-09-07T09:05:30;22.70;99.90
32977;DHT22;72327;50.842;4.450;2023-09-07T09:08:05;22.70;99.90
32977;DHT22;72327;50.842;4.450;2023-09-07T09:10:31;22.80;99.90
32977;DHT22;72327;50.842;4.450;2023-09-07T09:12:57;22.90;99.90
32977;DHT22;72327;50.842;4.450;2023-09-07T09:15:25;22.90;99.90
32977;DHT22;72327;50.842;4.450;2023-09-07T09:17:51;22.90;99.90
32977;DHT22;72327;50.842;4.450;2023-09-07T09:20:24;23.00;99.90
32977;DHT22;72327;50.842;4.450;2023-09-07T09:22:53;23.00;99.90
32977;DHT22;72327;50.842;4.450;2023-09-07T09:25:19;23.10;99.90
32977;DHT22;72327;50.842;4.450;2023-09-07T09:27:46;23.10;99.90
32977;DHT22;72327;50.842;4.450;2023-09-07T09:30:12;23.20;99.90
32977;DHT22;72327;50.842;4.450;2023-09-07T09:32:40;23.20;99.90
32977;DHT22;72327;50.842;4.450;2023-09-07T09:35:07;23.30;99.90
32977;DHT22;72327;50.842;4.450;2023-09-07T09:37:33;23.40;99.90
32977;DHT22;72327;50.842;4.450;2023-09-07T09:40:00;23.50;99.90
32977;DHT22;72327;50.842;4.450;2023-09-07T09:42:27;23.60;99.90
32977;DHT22;72327;50.842;4.450;2023-09-07T09:44:54;23.70;99.90
32977;DHT22;72327;50.842;4.450;2023-09-07T09:47:21;23.70;99.90
32977;DHT22;72327;50.842;4.450;2023-09-07T09:49:49;23.80;99.90
32977;DHT22;72327;50.842;4.450;2023-09-07T09:52:15;24.10;99.90
32977;DHT22;72327;50.842;4.450;2023-09-07T09:54:42;24.10;99.90
32977;DHT22;72327;50.842;4.450;2023-09-07T09:57:08;24.10;99.90
32977;DHT22;72327;50.842;4.450;2023-09-07T09:59:34;24.20;99.90
32977;DHT22;72327;50.842;4.450;2023-09-07T10:02:01;24.30;99.90
32977;DHT22;72327;50.842;4.450;2023-09-07T10:04:28;24.40;99.90
32977;DHT22;72327;50.842;4.450;2023-09-07T10:07:01;24.40;99.90
32977;DHT22;72327;50.842;4.450;2023-09-07T10:09:32;24.40;99.90
32977;DHT22;72327;50.842;4.450;2023-09-07T10:11:58;24.50;99.90
32977;DHT22;72327;50.842;4.450;2023-09-07T10:14:25;24.60;99.90
32977;DHT22;72327;50.842;4.450;2023-09-07T10:16:52;24.70;99.90
32977;DHT22;72327;50.842;4.450;2023-09-07T10:19:22;24.80;99.90
32977;DHT22;72327;50.842;4.450;2023-09-07T10:21:48;24.80;99.90
32977;DHT22;72327;50.842;4.450;2023-09-07T10:24:31;24.80;99.90
32977;DHT22;72327;50.842;4.450;2023-09-07T10:29:27;24.90;99.90
32977;DHT22;72327;50.842;4.450;2023-09-07T10:31:53;25.00;99.90
32977;DHT22;72327;50.842;4.450;2023-09-07T10:34:19;24.90;99.90
32977;DHT22;72327;50.842;4.450;2023-09-07T10:36:48;25.00;99.90
32977;DHT22;72327;50.842;4.450;2023-09-07T10:39:16;25.00;99.90
32977;DHT22;72327;50.842;4.450;2023-09-07T10:41:43;25.00;99.90
32977;DHT22;72327;50.842;4.450;2023-09-07T10:44:09;25.10;99.90
32977;DHT22;72327;50.842;4.450;2023-09-07T10:46:39;25.20;99.90
32977;DHT22;72327;50.842;4.450;2023-09-07T10:49:08;25.20;99.90
32977;DHT22;72327;50.842;4.450;2023-09-07T10:51:41;25.40;99.90
32977;DHT22;72327;50.842;4.450;2023-09-07T10:54:17;25.50;99.90
32977;DHT22;72327;50.842;4.450;2023-09-07T10:56:45;25.60;99.90
32977;DHT22;72327;50.842;4.450;2023-09-07T10:59:12;25.60;99.90
32977;DHT22;72327;50.842;4.450;2023-09-07T11:01:38;25.60;99.90
32977;DHT22;72327;50.842;4.450;2023-09-07T11:04:04;25.80;99.90
32977;DHT22;72327;50.842;4.450;2023-09-07T11:06:31;25.90;99.90
32977;DHT22;72327;50.842;4.450;2023-09-07T11:09:00;26.00;99.70
32977;DHT22;72327;50.842;4.450;2023-09-07T11:11:26;26.10;99.40
32977;DHT22;72327;50.842;4.450;2023-09-07T11:13:52;26.10;99.90
32977;DHT22;72327;50.842;4.450;2023-09-07T11:16:18;26.10;99.60
32977;DHT22;72327;50.842;4.450;2023-09-07T11:18:45;26.10;99.80
32977;DHT22;72327;50.842;4.450;2023-09-07T11:21:11;26.20;99.80
32977;DHT22;72327;50.842;4.450;2023-09-07T11:23:37;26.20;99.40
32977;DHT22;72327;50.842;4.450;2023-09-07T11:26:07;26.10;99.40
32977;DHT22;72327;50.842;4.450;2023-09-07T11:28:34;26.20;99.40
32977;DHT22;72327;50.842;4.450;2023-09-07T11:31:00;26.20;99.20
32977;DHT22;72327;50.842;4.450;2023-09-07T11:33:26;26.40;98.90
32977;DHT22;72327;50.842;4.450;2023-09-07T11:35:52;26.40;99.00
32977;DHT22;72327;50.842;4.450;2023-09-07T11:38:20;26.50;98.80
32977;DHT22;72327;50.842;4.450;2023-09-07T11:40:45;26.50;98.80
32977;DHT22;72327;50.842;4.450;2023-09-07T11:43:12;26.60;98.80
32977;DHT22;72327;50.842;4.450;2023-09-07T11:45:42;26.60;98.00
32977;DHT22;72327;50.842;4.450;2023-09-07T11:48:08;26.70;97.50
32977;DHT22;72327;50.842;4.450;2023-09-07T11:50:35;26.70;97.20
32977;DHT22;72327;50.842;4.450;2023-09-07T11:53:00;26.60;97.30
32977;DHT22;72327;50.842;4.450;2023-09-07T11:55:26;26.70;97.30
32977;DHT22;72327;50.842;4.450;2023-09-07T11:57:52;26.80;97.30
32977;DHT22;72327;50.842;4.450;2023-09-07T12:00:18;26.80;97.90
32977;DHT22;72327;50.842;4.450;2023-09-07T12:02:44;26.80;97.20
32977;DHT22;72327;50.842;4.450;2023-09-07T12:05:10;26.80;96.40
32977;DHT22;72327;50.842;4.450;2023-09-07T12:07:40;26.80;96.70
32977;DHT22;72327;50.842;4.450;2023-09-07T12:10:06;27.00;96.30
32977;DHT22;72327;50.842;4.450;2023-09-07T12:12:36;27.00;96.20
32977;DHT22;72327;50.842;4.450;2023-09-07T12:15:02;27.10;96.50
32977;DHT22;72327;50.842;4.450;2023-09-07T12:17:29;27.00;96.60
32977;DHT22;72327;50.842;4.450;2023-09-07T12:19:55;27.10;97.20
32977;DHT22;72327;50.842;4.450;2023-09-07T12:22:21;27.10;97.00
32977;DHT22;72327;50.842;4.450;2023-09-07T12:24:46;27.10;97.40
32977;DHT22;72327;50.842;4.450;2023-09-07T12:27:12;27.10;96.10
32977;DHT22;72327;50.842;4.450;2023-09-07T12:29:38;27.30;96.00
32977;DHT22;72327;50.842;4.450;2023-09-07T12:32:04;27.40;96.90
32977;DHT22;72327;50.842;4.450;2023-09-07T12:34:29;27.30;96.40
32977;DHT22;72327;50.842;4.450;2023-09-07T12:36:55;27.30;96.10
32977;DHT22;72327;50.842;4.450;2023-09-07T12:39:20;27.40;96.30
32977;DHT22;72327;50.842;4.450;2023-09-07T12:41:46;27.50;95.80
32977;DHT22;72327;50.842;4.450;2023-09-07T12:44:12;27.60;95.70
32977;DHT22;72327;50.842;4.450;2023-09-07T12:46:38;27.70;96.40
32977;DHT22;72327;50.842;4.450;2023-09-07T12:49:04;27.60;96.10
32977;DHT22;72327;50.842;4.450;2023-09-07T12:51:30;27.70;94.40
32977;DHT22;72327;50.842;4.450;2023-09-07T12:53:56;27.70;95.50
32977;DHT22;72327;50.842;4.450;2023-09-07T12:56:21;27.70;95.30
32977;DHT22;72327;50.842;4.450;2023-09-07T12:58:47;27.70;95.20
32977;DHT22;72327;50.842;4.450;2023-09-07T13:01:13;27.80;95.60
32977;DHT22;72327;50.842;4.450;2023-09-07T13:03:40;27.80;95.70
32977;DHT22;72327;50.842;4.450;2023-09-07T13:06:06;27.90;95.40
32977;DHT22;72327;50.842;4.450;2023-09-07T13:08:32;28.10;95.70
32977;DHT22;72327;50.842;4.450;2023-09-07T13:10:58;28.10;94.90
32977;DHT22;72327;50.842;4.450;2023-09-07T13:13:24;28.00;95.60
32977;DHT22;72327;50.842;4.450;2023-09-07T13:15:58;28.10;95.20
32977;DHT22;72327;50.842;4.450;2023-09-07T13:18:23;28.00;95.50
32977;DHT22;72327;50.842;4.450;2023-09-07T13:20:50;28.00;95.20
32977;DHT22;72327;50.842;4.450;2023-09-07T13:23:18;28.10;95.40
32977;DHT22;72327;50.842;4.450;2023-09-07T13:25:44;28.10;95.60
32977;DHT22;72327;50.842;4.450;2023-09-07T13:28:10;28.10;95.50
32977;DHT22;72327;50.842;4.450;2023-09-07T13:30:35;28.20;95.20
32977;DHT22;72327;50.842;4.450;2023-09-07T13:33:01;28.20;95.10
32977;DHT22;72327;50.842;4.450;2023-09-07T13:35:27;28.30;95.10
32977;DHT22;72327;50.842;4.450;2023-09-07T13:37:52;28.40;94.80
32977;DHT22;72327;50.842;4.450;2023-09-07T13:40:18;28.30;95.10
32977;DHT22;72327;50.842;4.450;2023-09-07T13:42:47;28.40;94.50
32977;DHT22;72327;50.842;4.450;2023-09-07T13:45:13;28.50;94.80
32977;DHT22;72327;50.842;4.450;2023-09-07T13:47:39;28.60;94.50
32977;DHT22;72327;50.842;4.450;2023-09-07T13:50:05;28.60;94.60
32977;DHT22;72327;50.842;4.450;2023-09-07T13:52:31;28.70;94.70
32977;DHT22;72327;50.842;4.450;2023-09-07T13:54:56;28.70;94.20
32977;DHT22;72327;50.842;4.450;2023-09-07T13:57:22;28.80;94.70
32977;DHT22;72327;50.842;4.450;2023-09-07T13:59:48;28.60;94.60
32977;DHT22;72327;50.842;4.450;2023-09-07T14:02:13;28.70;95.30
32977;DHT22;72327;50.842;4.450;2023-09-07T14:04:39;28.70;95.50
32977;DHT22;72327;50.842;4.450;2023-09-07T14:07:05;28.70;95.50
32977;DHT22;72327;50.842;4.450;2023-09-07T14:09:30;28.60;95.40
32977;DHT22;72327;50.842;4.450;2023-09-07T14:11:56;28.70;94.90
32977;DHT22;72327;50.842;4.450;2023-09-07T14:14:22;28.80;95.10
32977;DHT22;72327;50.842;4.450;2023-09-07T14:16:48;28.80;95.40
32977;DHT22;72327;50.842;4.450;2023-09-07T14:19:15;28.80;95.70
32977;DHT22;72327;50.842;4.450;2023-09-07T14:21:41;28.80;94.70
32977;DHT22;72327;50.842;4.450;2023-09-07T14:24:06;28.80;95.30
32977;DHT22;72327;50.842;4.450;2023-09-07T14:26:32;28.80;95.20
32977;DHT22;72327;50.842;4.450;2023-09-07T14:28:58;28.80;94.80
32977;DHT22;72327;50.842;4.450;2023-09-07T14:31:23;28.80;94.40
32977;DHT22;72327;50.842;4.450;2023-09-07T14:33:49;29.10;95.10
32977;DHT22;72327;50.842;4.450;2023-09-07T14:36:15;29.10;95.40
32977;DHT22;72327;50.842;4.450;2023-09-07T14:38:41;29.00;95.60
32977;DHT22;72327;50.842;4.450;2023-09-07T14:41:10;29.10;95.50
32977;DHT22;72327;50.842;4.450;2023-09-07T14:43:41;29.10;95.10
32977;DHT22;72327;50.842;4.450;2023-09-07T14:46:07;29.10;95.20
32977;DHT22;72327;50.842;4.450;2023-09-07T14:48:32;29.10;94.90
32977;DHT22;72327;50.842;4.450;2023-09-07T14:50:58;29.00;95.80
32977;DHT22;72327;50.842;4.450;2023-09-07T14:53:24;28.90;96.10
32977;DHT22;72327;50.842;4.450;2023-09-07T14:55:49;29.00;95.50
32977;DHT22;72327;50.842;4.450;2023-09-07T14:58:15;29.00;95.00
32977;DHT22;72327;50.842;4.450;2023-09-07T15:00:40;29.00;95.70
32977;DHT22;72327;50.842;4.450;2023-09-07T15:03:06;29.00;96.00
32977;DHT22;72327;50.842;4.450;2023-09-07T15:05:32;29.00;95.90
32977;DHT22;72327;50.842;4.450;2023-09-07T15:07:57;29.00;95.30
32977;DHT22;72327;50.842;4.450;2023-09-07T15:10:23;29.00;95.90
32977;DHT22;72327;50.842;4.450;2023-09-07T15:12:51;28.90;95.80
32977;DHT22;72327;50.842;4.450;2023-09-07T15:15:17;28.90;95.70
32977;DHT22;72327;50.842;4.450;2023-09-07T15:17:47;28.90;96.50
32977;DHT22;72327;50.842;4.450;2023-09-07T15:20:14;28.80;96.60
32977;DHT22;72327;50.842;4.450;2023-09-07T15:22:39;28.90;95.70
32977;DHT22;72327;50.842;4.450;2023-09-07T15:25:05;28.90;96.50
32977;DHT22;72327;50.842;4.450;2023-09-07T15:27:31;29.00;95.80
32977;DHT22;72327;50.842;4.450;2023-09-07T15:29:57;29.00;95.80
32977;DHT22;72327;50.842;4.450;2023-09-07T15:32:22;29.00;95.90